• Join FlightAware (Why Join?)
  • Login
  • US Flag 
09:53AM EDT


 

Airport Tracker/Info


-or-


 

Live Flight TrackerFlight Track Log ✈ CHH7124 ✈ 22-Aug-2013 ✈ ZYMD / MDG - ZBAA / PEK

Flight Track Log - Related Links

Times and Time Zones

All times are in EDT time to prevent confusion due to time zone crossing. See the CHH7124 flight status page for this flight to view local times or setup timezone preferences in your user account.

Time Position Orientation Groundspeed Altitude Reporting Facility
EDT Latitude Longitude Course Direction KTS MPH feet Rate Location/Type
10:56AM 44.4921 129.4482 250° West  Level Estimated
10:57AM 44.4599 129.3275 250° West  Level Estimated
10:58AM 44.4276 129.2070 249° West  Level Estimated
10:59AM 44.3952 129.0866 249° West  Level Estimated
11:00AM 44.3627 128.9664 249° West  Level Estimated
11:01AM 44.3300 128.8462 249° West  Level Estimated
11:02AM 44.2972 128.7262 249° West  Level Estimated
11:03AM 44.2643 128.6064 249° West  Level Estimated
11:04AM 44.2313 128.4867 249° West  Level Estimated
11:05AM 44.1982 128.3671 249° West  Level Estimated
11:06AM 44.1649 128.2476 249° West  Level Estimated
11:07AM 44.1315 128.1283 249° West  Level Estimated
11:08AM 44.0979 128.0091 249° West  Level Estimated
11:09AM 44.0643 127.8901 249° West  Level Estimated
11:10AM 44.0305 127.7712 248° West  Level Estimated
11:11AM 43.9966 127.6524 248° West  Level Estimated
11:12AM 43.9626 127.5338 248° West  Level Estimated
11:13AM 43.9293 127.4183 248° West  Level Estimated
11:14AM 43.8959 127.3029 248° West  Level Estimated
11:15AM 43.8624 127.1877 248° West  Level Estimated
11:16AM 43.8288 127.0726 248° West  Level Estimated
11:17AM 43.7950 126.9576 248° West  Level Estimated
11:18AM 43.7612 126.8428 248° West  Level Estimated
11:19AM 43.7272 126.7281 248° West  Level Estimated
11:20AM 43.6931 126.6135 248° West  Level Estimated
11:21AM 43.6589 126.4990 248° West  Level Estimated
11:22AM 43.6246 126.3847 248° West  Level Estimated
11:23AM 43.5902 126.2705 247° West  Level Estimated
11:24AM 43.5557 126.1565 247° West  Level Estimated
11:25AM 43.5210 126.0425 247° West  Level Estimated
11:26AM 43.4862 125.9287 247° West  Level Estimated
11:27AM 43.4514 125.8151 247° West  Level Estimated
11:28AM 43.4164 125.7015 247° West  Level Estimated
11:29AM 43.3813 125.5881 247° West  Level Estimated
11:30AM 43.3461 125.4749 247° West  Level Estimated
11:31AM 43.3107 125.3617 247° West  Level Estimated
11:32AM 43.2753 125.2487 247° West  Level Estimated
11:33AM 43.2397 125.1358 247° West  Level Estimated
11:34AM 43.2041 125.0231 247° West  Level Estimated
11:35AM 43.1683 124.9105 246° West  Level Estimated
11:36AM 43.1324 124.7980 246° West  Level Estimated
11:37AM 43.0964 124.6856 246° West  Level Estimated
11:38AM 43.0603 124.5734 246° West  Level Estimated
11:39AM 43.0241 124.4613 246° West  Level Estimated
11:40AM 42.9878 124.3494 246° West  Level Estimated
11:41AM 42.9514 124.2375 246° West  Level Estimated
11:42AM 42.9148 124.1259 246° West  Level Estimated
11:43AM 42.8782 124.0143 246° West  Level Estimated
11:44AM 42.8414 123.9029 246° West  Level Estimated
11:45AM 42.8046 123.7916 246° West  Level Estimated
11:46AM 42.7676 123.6804 246° West  Level Estimated
11:47AM 42.7305 123.5694 246° West  Level Estimated
11:48AM 42.6933 123.4585 246° West  Level Estimated
11:49AM 42.6561 123.3478 245° Southwest  Level Estimated
11:50AM 42.6186 123.2371 245° Southwest  Level Estimated
11:51AM 42.5812 123.1266 245° Southwest  Level Estimated
11:52AM 42.5435 123.0163 245° Southwest  Level Estimated
11:53AM 42.5058 122.9061 245° Southwest  Level Estimated
11:54AM 42.4680 122.7960 245° Southwest  Level Estimated
11:55AM 42.4301 122.6860 245° Southwest  Level Estimated
11:56AM 42.3920 122.5762 245° Southwest  Level Estimated
11:57AM 42.3539 122.4665 245° Southwest  Level Estimated
11:58AM 42.3157 122.3569 245° Southwest  Level Estimated
11:59AM 42.2773 122.2475 245° Southwest  Level Estimated
12:00PM 42.2389 122.1382 245° Southwest  Level Estimated
12:01PM 42.2003 122.0290 245° Southwest  Level Estimated
12:02PM 42.1617 121.9200 244° Southwest  Level Estimated
12:03PM 42.1229 121.8111 244° Southwest  Level Estimated
12:04PM 42.0840 121.7024 244° Southwest  Level Estimated
12:05PM 42.0451 121.5937 244° Southwest  Level Estimated
12:06PM 42.0060 121.4852 244° Southwest  Level Estimated
12:07PM 41.9668 121.3769 244° Southwest  Level Estimated
12:08PM 41.9276 121.2686 244° Southwest  Level Estimated
12:09PM 41.8882 121.1606 244° Southwest  Level Estimated
12:10PM 41.8487 121.0526 244° Southwest  Level Estimated
12:11PM 41.8092 120.9448 244° Southwest  Level Estimated
12:12PM 41.7695 120.8371 244° Southwest  Level Estimated
12:13PM 41.7297 120.7295 244° Southwest  Level Estimated
12:14PM 41.6898 120.6221 244° Southwest  Level Estimated
12:15PM 41.6499 120.5148 244° Southwest  Level Estimated
12:16PM 41.6098 120.4076 243° Southwest  Level Estimated
12:17PM 41.5696 120.3006 243° Southwest  Level Estimated
12:18PM 41.5294 120.1937 243° Southwest  Level Estimated
12:19PM 41.4890 120.0869 243° Southwest  Level Estimated
12:20PM 41.4485 119.9803 243° Southwest  Level Estimated
12:21PM 41.4079 119.8738 243° Southwest  Level Estimated
12:22PM 41.3673 119.7674 243° Southwest  Level Estimated
12:23PM 41.3265 119.6612 243° Southwest  Level Estimated
12:24PM 41.2856 119.5551 243° Southwest  Level Estimated
12:25PM 41.2447 119.4492 243° Southwest  Level Estimated
12:26PM 41.2036 119.3433 243° Southwest  Level Estimated
12:27PM 41.1625 119.2376 243° Southwest  Level Estimated
12:28PM 41.1212 119.1320 243° Southwest  Level Estimated
12:29PM 41.0799 119.0266 243° Southwest  Level Estimated
12:30PM 41.0384 118.9213 242° Southwest  Level Estimated
12:31PM 40.9969 118.8161 242° Southwest  Level Estimated
12:32PM 40.9553 118.7111 242° Southwest  Level Estimated
12:33PM 40.9135 118.6062 242° Southwest  Level Estimated
12:34PM 40.8717 118.5014 242° Southwest  Level Estimated
12:35PM 40.8298 118.3968 242° Southwest  Level Estimated
12:36PM 40.7878 118.2923 242° Southwest  Level Estimated
12:37PM 40.7457 118.1879 242° Southwest  Level Estimated
12:38PM 40.7035 118.0837 242° Southwest  Level Estimated
12:39PM 40.6612 117.9796 242° Southwest  Level Estimated
12:40PM 40.6188 117.8756 242° Southwest  Level Estimated
12:40PM 39.9050 116.7530 242° Southwest 211 243 6,000  Level FlightAware
12:40PM 39.8850 116.7550 176° South 206 237 5,700 -900 Descending FlightAware
12:41PM 40.5763 117.7718 242° Southwest  Level Estimated
12:41PM 39.8710 116.7570 174° South 204 235 5,500  Level FlightAware
12:41PM 39.8530 116.7600 173° South 201 231 5,100 -1,200 Descending FlightAware
12:41PM 39.8390 116.7610 177° South 199 229 4,800 -1,080 Descending FlightAware
12:42PM 39.8210 116.7630 175° South 196 226 4,500 -1,020 Descending FlightAware
12:42PM 39.8120 116.7640 175° South 195 224 4,300 -1,080 Descending FlightAware
12:42PM 39.7890 116.7670 174° South 195 224 3,900 -540 Descending FlightAware
12:43PM 39.7540 116.7720 174° South 197 227 3,700 -840 Descending FlightAware
12:43PM 39.7380 116.7550 219° Southwest 192 221 3,000 -1,680 Descending FlightAware
12:44PM 39.7350 116.7350 259° West 189 217 2,700 -480 Descending FlightAware
12:44PM 39.7310 116.6970 262° West 189 217 2,600 -360 Descending FlightAware
12:45PM 39.7810 116.6540 327° Northwest 181 208 2,100 -420 Descending FlightAware
12:46PM 39.7920 116.6450 328° Northwest 184 212 2,100  Level FlightAware
12:46PM 39.8010 116.6420 346° North 183 211 2,100  Level FlightAware
12:46PM 39.8160 116.6380 348° North 181 208 2,100  Level FlightAware
12:46PM 39.8310 116.6350 351° North 181 208 2,100  Level FlightAware
12:46PM 39.8390 116.6340 355° North 181 208 2,100  Level FlightAware
12:47PM 39.8610 116.6310 354° North 175 201 2,100  Level FlightAware
12:47PM 39.8730 116.6290 353° North 174 200 2,100  Level FlightAware
12:48PM 39.8910 116.6260 353° North 165 190 2,100  Level FlightAware
12:48PM 39.9100 116.6230 353° North 148 170 2,100  Level FlightAware
12:48PM 39.9200 116.6210 351° North 146 168 2,100  Level FlightAware
12:49PM 39.9400 116.6180 353° North 145 167 2,100  Level FlightAware
12:49PM 39.9520 116.6160 353° North 145 167 2,100  Level FlightAware
12:49PM 39.9660 116.6140 354° North 145 167 2,100 -420 Level FlightAware
12:50PM 39.9620 116.6150 169° South 146 168 1,700 -960 Descending FlightAware
12:51PM 40.0270 116.6040 353° North 148 170 800 -780 Descending FlightAware
12:51PM 40.0430 116.6020 355° North 148 170 800  Level FlightAware
12:54PM 40.0801 116.5846 340° North  Level Estimated